Time;durP1;ratioP1;P1;durP2;ratioP2;P2;SDS_P1;SDS_P2;PMS_P1;PMS_P2;Temp;Humidity;BMP_temperature;BMP_pressure;BME280_temperature;BME280_humidity;BME280_pressure;Samples;Min_cycle;Max_cycle;Signal;HPM_P1;HPM_P2
2022/08/25 00:01:33;;;;;;;7.38;5.22;;;18.60;99.90;;;;;;5058042;28;20028;-86
2022/08/25 00:04:01;;;;;;;6.35;5.47;;;18.60;99.90;;;;;;5067446;28;20446;-86
2022/08/25 00:06:29;;;;;;;10.60;6.65;;;18.60;99.90;;;;;;5055331;28;20036;-86
2022/08/25 00:08:58;;;;;;;10.30;6.18;;;18.60;99.90;;;;;;5052267;28;20112;-85
2022/08/25 00:11:25;;;;;;;11.95;7.03;;;18.50;99.90;;;;;;5065387;28;20092;-85
2022/08/25 00:13:55;;;;;;;10.38;7.72;;;18.50;99.90;;;;;;5063700;28;20028;-85
2022/08/25 00:16:21;;;;;;;11.95;8.07;;;18.40;99.90;;;;;;5062456;28;20036;-85
2022/08/25 00:18:57;;;;;;;10.18;7.57;;;18.40;99.90;;;;;;5067398;28;20044;-85
2022/08/25 00:21:22;;;;;;;;;;;18.40;99.90;;;;;;5066616;28;20032;-86
2022/08/25 00:23:48;;;;;;;18.08;8.40;;;18.40;99.90;;;;;;5066836;28;19909;-86
2022/08/25 00:26:15;;;;;;;12.88;8.05;;;18.30;99.90;;;;;;5058173;28;20025;-85
2022/08/25 00:28:42;;;;;;;12.40;8.10;;;18.30;99.90;;;;;;5065517;28;20036;-85
2022/08/25 00:31:13;;;;;;;18.88;9.05;;;18.30;99.90;;;;;;5060655;28;20465;-85
2022/08/25 00:33:38;;;;;;;11.80;8.40;;;18.30;99.90;;;;;;5067064;28;20067;-86
2022/08/25 00:36:05;;;;;;;12.20;8.63;;;18.20;99.90;;;;;;5058510;28;20047;-85
2022/08/25 00:38:30;;;;;;;10.70;8.45;;;18.20;99.90;;;;;;5064921;28;20050;-85
2022/08/25 00:41:05;;;;;;;9.50;8.18;;;18.10;99.90;;;;;;5045664;28;20029;-85
2022/08/25 00:43:40;;;;;;;11.82;8.10;;;18.10;99.90;;;;;;5063607;28;20024;-85
2022/08/25 00:46:07;;;;;;;15.82;9.30;;;18.10;99.90;;;;;;5063389;28;20028;-85
2022/08/25 00:48:32;;;;;;;13.95;8.55;;;18.10;99.90;;;;;;5067319;28;20040;-85
2022/08/25 00:51:01;;;;;;;10.43;8.15;;;18.10;99.90;;;;;;5056370;28;20028;-85
2022/08/25 00:53:28;;;;;;;12.50;8.35;;;18.00;99.90;;;;;;5064704;28;20439;-85
2022/08/25 00:55:54;;;;;;;12.30;8.55;;;18.00;99.90;;;;;;5054373;28;20412;-85
2022/08/25 00:58:24;;;;;;;9.55;7.50;;;18.00;99.90;;;;;;5066260;28;20119;-85
2022/08/25 01:00:52;;;;;;;11.40;7.80;;;18.10;99.90;;;;;;5061727;28;20036;-84
2022/08/25 01:03:19;;;;;;;12.82;8.85;;;18.10;99.90;;;;;;5043714;28;20028;-85
2022/08/25 01:05:47;;;;;;;15.25;8.93;;;18.10;99.90;;;;;;5067288;28;20059;-85
2022/08/25 01:08:13;;;;;;;13.48;8.30;;;18.00;99.90;;;;;;5064109;28;20042;-85
2022/08/25 01:10:43;;;;;;;9.07;7.45;;;18.00;99.90;;;;;;5064101;28;20035;-85
2022/08/25 01:13:16;;;;;;;9.68;7.60;;;18.00;99.90;;;;;;5064851;28;20029;-85
2022/08/25 01:15:44;;;;;;;21.52;8.65;;;18.00;99.90;;;;;;5066117;28;20349;-85
2022/08/25 01:18:10;;;;;;;13.02;8.95;;;18.00;99.90;;;;;;5065686;28;20131;-85
2022/08/25 01:20:36;;;;;;;11.60;8.82;;;18.00;99.90;;;;;;5063607;28;20017;-85
2022/08/25 01:23:02;;;;;;;10.45;8.40;;;18.00;99.90;;;;;;5063350;28;20035;-85
2022/08/25 01:25:53;;;;;;;11.43;8.70;;;17.90;99.90;;;;;;5061829;28;20033;-85
2022/08/25 01:28:20;;;;;;;17.20;9.80;;;18.00;99.90;;;;;;5055649;28;20602;-85
2022/08/25 01:30:46;;;;;;;17.98;10.05;;;17.90;99.90;;;;;;5059470;28;20049;-85
2022/08/25 01:33:12;;;;;;;14.32;9.23;;;17.90;99.90;;;;;;5067107;28;20044;-85
2022/08/25 01:35:39;;;;;;;16.15;9.18;;;17.90;99.90;;;;;;5065708;28;20035;-85
2022/08/25 01:38:06;;;;;;;11.15;8.23;;;17.90;99.90;;;;;;5064660;28;20479;-85
2022/08/25 01:40:33;;;;;;;16.30;9.38;;;17.80;99.90;;;;;;5065870;28;20075;-84
2022/08/25 01:43:25;;;;;;;11.80;9.13;;;17.90;99.90;;;;;;5063908;28;20032;-85
2022/08/25 01:45:51;;;;;;;13.32;8.63;;;17.80;99.90;;;;;;5056684;28;20032;-84
2022/08/25 01:48:18;;;;;;;13.13;8.57;;;17.80;99.90;;;;;;5052551;28;20089;-84
2022/08/25 01:50:44;;;;;;;10.82;9.18;;;17.80;99.90;;;;;;5062243;28;20021;-84
2022/08/25 01:53:30;;;;;;;11.40;7.90;;;17.80;99.90;;;;;;5063763;28;20029;-85
2022/08/25 01:56:04;;;;;;;12.57;7.68;;;17.80;99.90;;;;;;5061642;28;20056;-85
2022/08/25 01:58:34;;;;;;;10.70;7.65;;;17.80;99.90;;;;;;5062195;28;20037;-85
2022/08/25 02:01:03;;;;;;;10.18;7.95;;;17.80;99.90;;;;;;5063859;28;20028;-84
2022/08/25 02:03:30;;;;;;;13.15;8.38;;;17.80;99.90;;;;;;5063548;28;20025;-85
2022/08/25 02:05:58;;;;;;;14.70;8.73;;;17.80;99.90;;;;;;5064029;28;20456;-84
2022/08/25 02:08:24;;;;;;;14.65;8.45;;;17.80;99.90;;;;;;5061187;28;20024;-84
2022/08/25 02:10:52;;;;;;;14.38;8.30;;;17.80;99.90;;;;;;5061620;28;20025;-84
2022/08/25 02:13:19;;;;;;;20.40;9.90;;;17.70;99.90;;;;;;5051478;28;20028;-84
2022/08/25 02:15:49;;;;;;;13.27;9.50;;;17.70;99.90;;;;;;5066250;28;20021;-85
2022/08/25 02:18:16;;;;;;;12.75;9.15;;;17.70;99.90;;;;;;5063211;28;20040;-85
2022/08/25 02:20:41;;;;;;;10.73;8.38;;;17.60;99.90;;;;;;5067888;28;20031;-84
2022/08/25 02:23:09;;;;;;;12.85;9.68;;;17.60;99.90;;;;;;5061889;28;20133;-85
2022/08/25 02:25:37;;;;;;;11.55;8.50;;;17.70;99.90;;;;;;5070230;28;20029;-84
2022/08/25 02:28:03;;;;;;;13.68;9.05;;;17.60;99.90;;;;;;5064718;28;20480;-84
2022/08/25 02:30:28;;;;;;;20.42;10.02;;;17.60;99.90;;;;;;5064011;28;20070;-85
2022/08/25 02:32:54;;;;;;;12.15;9.82;;;17.60;99.90;;;;;;5067358;28;20024;-85
2022/08/25 02:35:20;;;;;;;13.18;9.23;;;17.50;99.90;;;;;;5069760;28;20044;-86
2022/08/25 02:37:46;;;;;;;14.20;9.43;;;17.50;99.90;;;;;;5066329;28;20025;-85
2022/08/25 02:40:12;;;;;;;9.93;8.10;;;17.50;99.90;;;;;;5063772;28;20050;-85
2022/08/25 02:42:37;;;;;;;14.38;9.15;;;17.50;99.90;;;;;;5066245;28;20017;-85
2022/08/25 02:45:03;;;;;;;16.60;9.25;;;17.50;99.90;;;;;;5067180;28;20145;-85
2022/08/25 02:47:30;;;;;;;17.08;9.80;;;17.50;99.90;;;;;;5067995;28;20120;-85
2022/08/25 02:49:56;;;;;;;16.52;9.02;;;17.50;99.90;;;;;;5065240;28;20456;-85
2022/08/25 02:52:22;;;;;;;10.13;8.13;;;17.50;99.90;;;;;;5066502;28;20059;-85
2022/08/25 02:54:48;;;;;;;13.10;9.52;;;17.50;99.90;;;;;;5065926;28;20052;-85
2022/08/25 02:57:14;;;;;;;9.55;8.23;;;17.50;99.90;;;;;;5050069;28;20033;-85
2022/08/25 02:59:40;;;;;;;13.57;9.45;;;17.50;99.90;;;;;;5066904;28;20044;-85
2022/08/25 03:02:06;;;;;;;24.33;9.32;;;17.50;99.90;;;;;;5062920;28;20035;-85
2022/08/25 03:04:31;;;;;;;17.33;10.88;;;17.50;99.90;;;;;;5046728;28;20099;-85
2022/08/25 03:06:58;;;;;;;16.50;11.13;;;17.40;99.90;;;;;;5066513;28;20108;-85
2022/08/25 03:09:25;;;;;;;11.75;9.27;;;17.40;99.90;;;;;;5070619;28;20029;-85
2022/08/25 03:11:50;;;;;;;14.55;9.52;;;17.50;99.90;;;;;;5066701;28;20435;-85
2022/08/25 03:14:16;;;;;;;11.38;8.98;;;17.40;99.90;;;;;;5062037;28;20009;-85
2022/08/25 03:16:43;;;;;;;12.50;8.13;;;17.40;99.90;;;;;;5063465;28;20025;-85
2022/08/25 03:19:08;;;;;;;13.60;8.95;;;17.40;99.90;;;;;;5066724;28;20036;-85
2022/08/25 03:21:38;;;;;;;12.60;10.18;;;17.50;99.90;;;;;;5061602;28;20399;-85
2022/08/25 03:24:05;;;;;;;12.85;9.45;;;17.40;99.90;;;;;;5061225;28;20107;-85
2022/08/25 03:29:16;;;;;;;12.40;8.40;;;17.40;99.90;;;;;;5065545;28;20043;-85
2022/08/25 03:31:43;;;;;;;13.35;9.27;;;17.40;99.90;;;;;;5065823;28;20025;-85
2022/08/25 03:34:12;;;;;;;12.27;9.45;;;17.50;99.90;;;;;;5057980;28;20274;-85
2022/08/25 03:36:37;;;;;;;12.15;9.40;;;17.50;99.90;;;;;;5056394;28;20056;-85
2022/08/25 03:39:04;;;;;;;12.52;9.70;;;17.50;99.90;;;;;;5068432;28;20123;-85
2022/08/25 03:41:31;;;;;;;15.88;9.65;;;17.50;99.90;;;;;;5063942;28;20066;-85
2022/08/25 03:43:58;;;;;;;12.68;8.85;;;17.40;99.90;;;;;;5063181;28;20094;-85
2022/08/25 03:46:33;;;;;;;16.10;9.55;;;17.40;99.90;;;;;;5064765;28;20190;-85
2022/08/25 03:49:00;;;;;;;11.45;8.45;;;17.40;99.90;;;;;;5062791;28;20032;-85
2022/08/25 03:51:29;;;;;;;11.88;9.07;;;17.40;99.90;;;;;;5059981;28;20742;-85
2022/08/25 03:53:57;;;;;;;11.52;9.13;;;17.40;99.90;;;;;;5064577;28;20027;-85
2022/08/25 03:56:24;;;;;;;13.50;9.50;;;17.40;99.90;;;;;;5065764;28;20199;-85
2022/08/25 03:58:50;;;;;;;13.85;10.20;;;17.40;99.90;;;;;;5060812;28;20078;-85
2022/08/25 04:01:16;;;;;;;13.85;9.23;;;17.40;99.90;;;;;;5063924;28;20048;-84
2022/08/25 04:03:42;;;;;;;10.77;9.25;;;17.40;99.90;;;;;;5066402;28;20493;-85
2022/08/25 04:06:08;;;;;;;12.00;8.77;;;17.40;99.90;;;;;;5065592;28;20296;-85
2022/08/25 04:08:34;;;;;;;12.98;10.05;;;17.40;99.90;;;;;;5059442;28;20052;-85
2022/08/25 04:11:06;;;;;;;13.63;9.63;;;17.40;99.90;;;;;;5068487;28;20025;-85
2022/08/25 04:13:31;;;;;;;14.27;11.23;;;17.40;99.90;;;;;;5066732;28;20086;-84
2022/08/25 04:15:57;;;;;;;13.80;10.55;;;17.30;99.90;;;;;;5066938;28;20028;-85
2022/08/25 04:18:22;;;;;;;15.50;10.25;;;17.30;99.90;;;;;;5065617;28;20064;-85
2022/08/25 04:20:48;;;;;;;16.60;11.02;;;17.20;99.90;;;;;;5059924;28;20016;-85
2022/08/25 04:23:13;;;;;;;17.13;10.90;;;17.20;99.90;;;;;;5063614;28;20111;-85
2022/08/25 04:25:43;;;;;;;11.50;9.77;;;17.20;99.90;;;;;;5064843;28;20035;-84
2022/08/25 04:28:09;;;;;;;14.98;11.73;;;17.10;99.90;;;;;;5067860;28;20033;-84
2022/08/25 04:30:35;;;;;;;15.02;10.02;;;17.20;99.90;;;;;;5055157;28;20146;-84
2022/08/25 04:33:01;;;;;;;13.27;10.50;;;17.10;99.90;;;;;;5060782;28;20028;-84
2022/08/25 04:35:26;;;;;;;17.73;10.88;;;17.10;99.90;;;;;;5065939;28;20076;-84
2022/08/25 04:37:52;;;;;;;11.90;8.98;;;17.10;99.90;;;;;;5063856;28;20400;-84
2022/08/25 04:40:17;;;;;;;16.60;10.02;;;17.10;99.90;;;;;;5062094;28;20028;-85
2022/08/25 04:42:43;;;;;;;14.20;8.77;;;17.20;99.90;;;;;;5058924;28;20040;-84
2022/08/25 04:45:10;;;;;;;12.48;8.82;;;17.20;99.90;;;;;;5064863;28;20455;-84
2022/08/25 04:47:39;;;;;;;9.98;8.05;;;17.20;99.90;;;;;;5063911;28;20115;-84
2022/08/25 04:50:06;;;;;;;11.75;8.85;;;17.30;99.90;;;;;;5068021;28;20579;-84
2022/08/25 04:52:32;;;;;;;12.85;9.23;;;17.30;99.90;;;;;;5062471;28;20036;-84
2022/08/25 04:54:58;;;;;;;12.10;9.10;;;17.30;99.90;;;;;;5065734;28;20028;-84
2022/08/25 04:57:24;;;;;;;14.93;9.82;;;17.30;99.90;;;;;;5063885;28;20028;-84
2022/08/25 04:59:49;;;;;;;10.00;8.95;;;17.30;99.90;;;;;;5066029;28;20037;-85
2022/08/25 05:02:15;;;;;;;10.93;9.48;;;17.40;99.90;;;;;;5061391;28;20020;-84
2022/08/25 05:04:40;;;;;;;10.73;9.27;;;17.40;99.90;;;;;;5062949;28;20028;-85
2022/08/25 05:07:06;;;;;;;14.05;10.57;;;17.40;99.90;;;;;;5056001;28;20358;-84
2022/08/25 05:09:32;;;;;;;13.38;10.00;;;17.50;99.90;;;;;;5068218;28;20427;-84
2022/08/25 05:11:57;;;;;;;12.98;10.05;;;17.50;99.90;;;;;;5062187;28;20108;-84
2022/08/25 05:14:23;;;;;;;16.60;11.15;;;17.50;99.90;;;;;;5062031;28;20355;-84
2022/08/25 05:16:49;;;;;;;16.25;11.45;;;17.50;99.90;;;;;;5064583;28;20025;-84
2022/08/25 05:19:15;;;;;;;19.17;10.75;;;17.50;99.90;;;;;;5065148;28;20042;-84
2022/08/25 05:21:40;;;;;;;17.02;10.77;;;17.50;99.90;;;;;;5062802;28;20035;-84
2022/08/25 05:24:06;;;;;;;12.23;9.38;;;17.60;99.90;;;;;;5061273;28;20044;-84
2022/08/25 05:26:34;;;;;;;20.85;10.88;;;17.60;99.90;;;;;;5065188;28;20772;-84
2022/08/25 05:29:03;;;;;;;21.15;12.65;;;17.70;99.90;;;;;;5062010;28;20028;-85
2022/08/25 05:31:30;;;;;;;14.23;11.05;;;17.60;99.90;;;;;;5055296;28;20059;-84
2022/08/25 05:33:56;;;;;;;15.00;10.18;;;17.70;99.90;;;;;;5064283;28;20020;-85
2022/08/25 05:36:23;;;;;;;11.80;9.32;;;17.70;99.90;;;;;;5062824;28;20024;-84
2022/08/25 05:38:49;;;;;;;13.07;10.55;;;17.80;99.90;;;;;;5059940;28;20036;-85
2022/08/25 05:41:34;;;;;;;19.65;10.57;;;17.80;99.90;;;;;;5055436;28;20465;-88
2022/08/25 05:44:00;;;;;;;14.75;10.68;;;17.90;99.90;;;;;;5057393;28;20405;-86
2022/08/25 05:46:26;;;;;;;12.00;9.40;;;17.90;99.90;;;;;;5062475;28;20028;-86
2022/08/25 05:48:52;;;;;;;13.15;9.68;;;17.90;99.90;;;;;;5046672;28;20024;-86
2022/08/25 05:51:18;;;;;;;16.02;9.95;;;18.00;99.90;;;;;;5066830;28;20099;-85
2022/08/25 05:53:46;;;;;;;11.25;9.70;;;18.00;99.90;;;;;;5048346;28;20028;-86
2022/08/25 05:56:12;;;;;;;13.05;10.60;;;18.10;99.90;;;;;;5069463;28;20388;-86
2022/08/25 05:58:39;;;;;;;12.35;9.40;;;18.20;99.90;;;;;;5069186;28;20037;-86
2022/08/25 06:03:53;;;;;;;17.23;10.25;;;18.30;99.90;;;;;;5070941;28;20396;-86
2022/08/25 06:06:21;;;;;;;14.02;10.02;;;18.30;99.90;;;;;;5069213;28;20029;-86
2022/08/25 06:08:47;;;;;;;14.02;9.93;;;18.40;99.90;;;;;;5067808;28;20028;-85
2022/08/25 06:11:14;;;;;;;12.40;9.45;;;18.40;99.90;;;;;;5067110;28;20024;-86
2022/08/25 06:13:40;;;;;;;23.65;11.90;;;18.50;99.90;;;;;;5070991;28;20025;-86
2022/08/25 06:16:06;;;;;;;10.65;9.43;;;18.60;99.90;;;;;;5068174;28;20430;-86
2022/08/25 06:18:31;;;;;;;24.05;13.85;;;18.60;99.90;;;;;;5066576;28;20474;-86
2022/08/25 06:20:57;;;;;;;28.25;14.88;;;18.70;99.90;;;;;;5068116;28;20021;-86
2022/08/25 06:23:22;;;;;;;20.35;13.60;;;18.80;99.90;;;;;;5068462;28;20067;-86
2022/08/25 06:25:52;;;;;;;28.23;15.98;;;18.80;99.90;;;;;;5070475;28;20043;-86
2022/08/25 06:28:19;;;;;;;23.45;17.10;;;18.90;99.90;;;;;;5064869;28;20021;-86
2022/08/25 06:30:45;;;;;;;19.88;13.50;;;18.90;99.90;;;;;;5071055;28;20044;-86
2022/08/25 06:33:11;;;;;;;26.27;14.98;;;18.90;99.90;;;;;;5059135;28;20394;-86
2022/08/25 06:35:41;;;;;;;19.50;13.90;;;18.90;99.90;;;;;;5070119;28;20037;-84
2022/08/25 06:38:07;;;;;;;19.85;12.63;;;19.00;99.90;;;;;;5066615;28;20028;-86
2022/08/25 06:40:33;;;;;;;21.45;13.82;;;19.00;99.90;;;;;;5065388;28;20510;-86
2022/08/25 06:42:58;;;;;;;30.00;14.57;;;19.10;99.90;;;;;;5063424;28;20060;-86
2022/08/25 06:45:24;;;;;;;22.25;13.00;;;19.10;99.90;;;;;;5068701;28;20024;-86
2022/08/25 06:47:50;;;;;;;20.65;12.95;;;19.10;99.90;;;;;;5068368;28;20380;-87
2022/08/25 06:50:16;;;;;;;22.58;14.32;;;19.20;99.90;;;;;;5064126;28;20029;-87
2022/08/25 06:52:41;;;;;;;21.92;13.45;;;19.30;99.90;;;;;;5067053;28;20029;-86
2022/08/25 06:55:07;;;;;;;20.38;13.20;;;19.40;99.90;;;;;;5069924;28;20495;-86
2022/08/25 06:57:34;;;;;;;18.27;12.95;;;19.40;99.90;;;;;;5069024;28;20025;-87
2022/08/25 07:00:05;;;;;;;29.95;14.77;;;19.40;99.90;;;;;;5070743;28;20477;-86
2022/08/25 07:02:30;;;;;;;22.23;13.25;;;19.40;99.90;;;;;;5067265;28;20041;-86
2022/08/25 07:04:56;;;;;;;23.13;12.27;;;19.50;99.90;;;;;;5071139;28;20031;-87
2022/08/25 07:07:22;;;;;;;32.15;14.00;;;19.50;99.90;;;;;;5068763;28;20078;-86
2022/08/25 07:09:47;;;;;;;25.73;14.25;;;19.60;99.90;;;;;;5068453;28;20029;-87
2022/08/25 07:12:13;;;;;;;26.48;12.52;;;19.60;99.90;;;;;;5061347;28;20028;-87
2022/08/25 07:14:38;;;;;;;22.65;11.20;;;19.60;99.90;;;;;;5063057;28;20111;-82
2022/08/25 07:17:07;;;;;;;26.02;12.65;;;19.70;99.90;;;;;;5065924;28;20469;-87
2022/08/25 07:19:33;;;;;;;18.60;11.43;;;19.80;99.90;;;;;;5064886;28;20048;-86
2022/08/25 07:21:58;;;;;;;18.13;12.15;;;19.80;99.90;;;;;;5068348;28;20475;-85
2022/08/25 07:24:24;;;;;;;17.25;12.15;;;19.80;99.90;;;;;;5067870;28;20024;-87
2022/08/25 07:26:50;;;;;;;20.20;11.95;;;19.90;99.90;;;;;;5068391;28;20532;-85
2022/08/25 07:29:20;;;;;;;38.15;15.00;;;19.90;99.90;;;;;;5059621;28;20115;-86
2022/08/25 07:31:46;;;;;;;17.50;10.23;;;20.00;99.90;;;;;;5053516;28;20029;-86
2022/08/25 07:36:56;;;;;;;23.83;11.45;;;20.10;99.90;;;;;;5061560;28;20102;-86
2022/08/25 07:39:22;;;;;;;29.40;14.38;;;20.10;99.90;;;;;;5065220;28;20040;-86
2022/08/25 07:41:49;;;;;;;21.13;13.85;;;20.20;99.90;;;;;;5067667;28;20465;-87
2022/08/25 07:44:14;;;;;;;27.08;14.73;;;20.30;99.90;;;;;;5062541;28;20023;-87
2022/08/25 07:46:40;;;;;;;26.38;14.98;;;20.30;99.90;;;;;;5067011;28;20025;-87
2022/08/25 07:49:06;;;;;;;29.08;13.65;;;20.40;99.90;;;;;;5048064;28;20063;-88
2022/08/25 07:51:32;;;;;;;24.67;12.65;;;20.40;99.90;;;;;;5058872;28;20808;-85
2022/08/25 07:53:58;;;;;;;36.53;16.40;;;20.50;99.90;;;;;;5062692;28;20021;-85
2022/08/25 07:56:23;;;;;;;26.05;14.30;;;20.60;99.90;;;;;;5051878;28;20444;-86
2022/08/25 07:58:49;;;;;;;28.58;13.43;;;20.60;99.90;;;;;;5060696;28;20443;-87
2022/08/25 08:01:17;;;;;;;27.80;12.95;;;20.70;99.90;;;;;;5066886;28;20435;-85
2022/08/25 08:03:44;;;;;;;26.70;13.10;;;20.80;99.90;;;;;;5067332;28;20052;-86
2022/08/25 08:06:12;;;;;;;20.80;12.43;;;20.80;99.90;;;;;;5066385;28;20032;-85
2022/08/25 08:08:42;;;;;;;30.70;15.43;;;20.90;99.90;;;;;;5064481;28;20290;-85
2022/08/25 08:11:25;;;;;;;25.63;16.02;;;21.00;99.90;;;;;;5064866;28;20535;-85
2022/08/25 08:13:51;;;;;;;39.58;17.33;;;21.00;99.90;;;;;;5047030;28;20025;-86
2022/08/25 08:16:19;;;;;;;35.05;15.95;;;21.10;99.90;;;;;;5067384;28;20025;-86
2022/08/25 08:18:45;;;;;;;25.10;13.48;;;21.20;99.90;;;;;;5059101;28;20037;-85
2022/08/25 08:21:13;;;;;;;25.40;14.52;;;21.20;99.90;;;;;;5061418;28;20481;-85
2022/08/25 08:23:39;;;;;;;26.35;16.63;;;21.30;99.90;;;;;;5062962;28;20063;-86
2022/08/25 08:26:05;;;;;;;30.50;15.57;;;21.30;99.90;;;;;;5070021;28;20025;-87
2022/08/25 08:28:31;;;;;;;25.33;15.15;;;21.40;99.90;;;;;;5067137;28;20028;-85
2022/08/25 08:30:57;;;;;;;26.48;15.27;;;21.50;99.90;;;;;;5067067;28;20502;-86
2022/08/25 08:33:23;;;;;;;27.13;13.93;;;21.60;99.90;;;;;;5058297;28;20242;-86
2022/08/25 08:36:11;;;;;;;29.15;13.35;;;21.60;99.90;;;;;;5064647;28;20384;-87
2022/08/25 08:38:38;;;;;;;34.15;15.80;;;21.80;99.90;;;;;;5063886;28;20067;-86
2022/08/25 08:44:34;;;;;;;30.45;15.20;;;21.90;99.90;;;;;;5060837;28;20079;-85
2022/08/25 08:47:20;;;;;;;35.03;15.43;;;22.10;99.90;;;;;;5065553;28;20028;-88
2022/08/25 08:50:05;;;;;;;41.17;15.95;;;22.30;99.90;;;;;;5060256;28;20511;-85
2022/08/25 08:52:48;;;;;;;30.80;15.00;;;22.40;99.90;;;;;;5064006;28;20032;-86
2022/08/25 08:55:26;;;;;;;32.47;13.75;;;22.40;99.90;;;;;;5063907;28;20082;-87
2022/08/25 08:57:54;;;;;;;33.53;16.20;;;22.40;99.90;;;;;;5060054;28;20044;-85
2022/08/25 09:00:20;;;;;;;38.40;16.20;;;22.50;99.90;;;;;;5063181;28;20040;-84
2022/08/25 09:02:52;;;;;;;31.05;16.30;;;22.60;99.90;;;;;;5064224;28;20036;-85
2022/08/25 09:05:19;;;;;;;42.15;17.05;;;22.60;99.90;;;;;;5057152;28;20059;-85
2022/08/25 09:07:52;;;;;;;28.23;14.02;;;22.70;99.90;;;;;;5063793;28;20032;-85
2022/08/25 09:10:19;;;;;;;31.50;14.30;;;22.70;99.90;;;;;;5065261;28;20477;-86
2022/08/25 09:12:56;;;;;;;26.52;14.23;;;22.70;99.90;;;;;;5065460;28;20838;-85
2022/08/25 09:18:32;;;;;;;27.63;13.77;;;22.70;99.90;;;;;;5066092;28;20051;-85
2022/08/25 09:21:02;;;;;;;30.35;13.73;;;22.70;99.90;;;;;;5059485;28;20248;-85
2022/08/25 09:24:18;;;;;;;50.80;17.77;;;22.70;99.90;;;;;;5062763;28;20037;-86
2022/08/25 09:27:07;;;;;;;24.67;14.23;;;22.80;99.90;;;;;;5027976;28;20043;-85
2022/08/25 09:29:54;;;;;;;35.42;14.43;;;22.70;99.90;;;;;;5048103;28;20066;-87
2022/08/25 09:32:21;;;;;;;29.88;13.15;;;22.70;99.90;;;;;;5057606;28;20377;-85
2022/08/25 09:34:47;;;;;;;27.27;12.63;;;22.90;99.90;;;;;;5060060;28;20495;-85
2022/08/25 09:37:13;;;;;;;22.15;11.73;;;22.90;99.90;;;;;;5060571;28;20036;-85
2022/08/25 09:39:38;;;;;;;23.42;11.27;;;22.90;99.90;;;;;;5064871;28;20424;-85
2022/08/25 09:42:04;;;;;;;24.35;10.93;;;23.00;99.90;;;;;;5059551;28;20033;-84
2022/08/25 09:44:42;;;;;;;28.98;10.85;;;23.00;99.90;;;;;;5044737;28;20021;-83
2022/08/25 09:47:20;;;;;;;24.63;12.30;;;23.10;99.90;;;;;;5043323;28;20528;-84
2022/08/25 09:49:55;;;;;;;36.70;13.18;;;23.10;99.90;;;;;;5059131;28;20035;-86
2022/08/25 09:52:43;;;;;;;21.20;11.95;;;23.20;99.90;;;;;;5062403;28;20480;-86
2022/08/25 09:55:14;;;;;;;20.60;12.35;;;23.30;99.90;;;;;;5060468;28;20048;-85
2022/08/25 09:57:44;;;;;;;29.52;12.68;;;23.40;99.90;;;;;;5060430;28;20040;-83
2022/08/25 10:00:30;;;;;;;23.58;11.02;;;23.40;99.90;;;;;;5063600;28;20041;-90
2022/08/25 10:03:22;;;;;;;24.63;12.38;;;23.50;99.90;;;;;;5047935;28;20024;-84
2022/08/25 10:05:54;;;;;;;25.88;11.57;;;23.50;99.90;;;;;;5060883;28;20056;-84
2022/08/25 10:08:50;;;;;;;27.77;11.02;;;23.50;99.90;;;;;;5064268;28;20025;-84
2022/08/25 10:11:36;;;;;;;29.85;12.63;;;23.50;99.90;;;;;;5064769;28;20358;-85
2022/08/25 10:14:27;;;;;;;25.60;12.25;;;23.50;99.90;;;;;;5063314;28;20320;-83
2022/08/25 10:17:23;;;;;;;32.47;12.18;;;23.60;99.90;;;;;;5066871;28;20032;-84
2022/08/25 10:19:50;;;;;;;;;;;23.70;99.90;;;;;;5058484;28;20043;-87
2022/08/25 10:22:23;;;;;;;39.50;13.18;;;23.80;99.90;;;;;;5061786;28;19933;-84
2022/08/25 10:24:49;;;;;;;23.98;11.43;;;23.80;99.90;;;;;;5062883;28;20035;-83
2022/08/25 10:27:34;;;;;;;24.60;12.23;;;23.80;99.90;;;;;;5064888;28;20017;-83
2022/08/25 10:30:20;;;;;;;26.50;12.27;;;23.90;99.90;;;;;;5061335;28;20094;-83
2022/08/25 10:33:09;;;;;;;32.58;11.02;;;24.10;99.90;;;;;;5056072;28;20098;-83
2022/08/25 10:35:49;;;;;;;23.88;10.43;;;24.00;99.90;;;;;;5068099;28;20028;-84
2022/08/25 10:38:27;;;;;;;25.95;11.82;;;24.10;99.90;;;;;;5064448;28;20029;-84
2022/08/25 10:41:12;;;;;;;33.47;10.38;;;24.20;99.90;;;;;;5062994;28;20116;-83
2022/08/25 10:43:50;;;;;;;25.42;11.00;;;24.30;99.90;;;;;;5067399;28;20532;-84
2022/08/25 10:46:49;;;;;;;27.13;11.05;;;24.30;99.90;;;;;;5067226;28;20086;-83
2022/08/25 10:49:37;;;;;;;31.33;10.45;;;24.30;99.90;;;;;;5067428;28;20031;-83
2022/08/25 10:52:10;;;;;;;29.85;12.02;;;24.20;99.90;;;;;;5066768;28;20459;-83
2022/08/25 10:54:58;;;;;;;37.05;11.73;;;24.20;99.90;;;;;;5067957;28;20074;-82
2022/08/25 10:57:54;;;;;;;26.52;11.70;;;24.20;99.90;;;;;;5067433;28;20032;-84
2022/08/25 11:00:25;;;;;;;37.15;12.23;;;24.20;99.90;;;;;;5063593;28;20048;-87
2022/08/25 11:03:28;;;;;;;32.05;11.65;;;24.20;99.90;;;;;;5068093;28;20036;-86
2022/08/25 11:06:11;;;;;;;24.38;10.63;;;24.30;99.90;;;;;;5068927;28;20028;-89
2022/08/25 11:08:50;;;;;;;23.77;11.07;;;24.20;99.90;;;;;;5064196;28;20540;-89
2022/08/25 11:11:26;;;;;;;26.10;11.27;;;24.30;99.90;;;;;;5068023;28;20031;-90
2022/08/25 11:14:21;;;;;;;25.70;10.57;;;24.40;99.90;;;;;;5063746;28;20028;-89
2022/08/25 11:16:51;;;;;;;30.92;11.77;;;24.40;99.90;;;;;;5025296;28;20111;-87
2022/08/25 11:19:19;;;;;;;25.15;10.38;;;24.50;99.90;;;;;;5066508;28;20040;-86
2022/08/25 11:22:04;;;;;;;32.63;11.95;;;24.40;99.90;;;;;;5063199;28;20039;-86
2022/08/25 11:24:42;;;;;;;25.23;10.57;;;24.40;99.90;;;;;;5066338;28;20024;-88
2022/08/25 11:27:30;;;;;;;23.60;11.32;;;24.40;99.90;;;;;;5066505;28;20036;-86
2022/08/25 11:30:07;;;;;;;20.65;9.93;;;24.50;99.90;;;;;;5057481;28;20452;-83
2022/08/25 11:32:34;;;;;;;23.45;10.57;;;24.50;99.90;;;;;;5062083;28;20096;-93
2022/08/25 11:35:09;;;;;;;23.90;10.70;;;24.50;99.90;;;;;;5068633;28;20024;-91
2022/08/25 11:37:40;;;;;;;;;;;24.50;99.90;;;;;;5066030;28;20031;-90
2022/08/25 11:40:25;;;;;;;28.08;11.50;;;24.50;99.90;;;;;;5059664;28;19968;-89
2022/08/25 11:43:07;;;;;;;23.33;10.98;;;24.50;99.90;;;;;;5067592;28;20098;-87
2022/08/25 11:45:41;;;;;;;29.75;10.90;;;24.50;99.90;;;;;;5065188;28;20040;-87
2022/08/25 11:48:15;;;;;;;24.05;10.50;;;24.50;99.90;;;;;;5067302;28;20052;-90
2022/08/25 11:50:58;;;;;;;23.73;11.03;;;24.60;99.90;;;;;;5067817;28;20028;-94
2022/08/25 11:53:31;;;;;;;31.90;10.82;;;24.50;99.90;;;;;;5067263;28;20121;-85
2022/08/25 11:56:04;;;;;;;23.98;10.75;;;24.60;99.90;;;;;;5066134;28;20036;-88
2022/08/25 11:58:39;;;;;;;23.98;10.88;;;24.60;99.90;;;;;;5064429;28;20036;-89
2022/08/25 12:01:09;;;;;;;23.27;11.70;;;24.70;99.90;;;;;;5063865;28;20116;-91
2022/08/25 12:03:35;;;;;;;32.95;11.15;;;24.80;99.90;;;;;;5062592;28;20061;-85
2022/08/25 12:06:25;;;;;;;32.30;9.80;;;24.90;99.90;;;;;;5069167;28;20055;-92
2022/08/25 12:08:59;;;;;;;27.60;11.05;;;25.10;99.90;;;;;;5066977;28;20047;-91
2022/08/25 12:11:38;;;;;;;30.33;10.48;;;25.10;99.90;;;;;;5061392;28;20104;-87
2022/08/25 12:14:21;;;;;;;15.65;8.65;;;25.20;99.90;;;;;;5062374;28;20127;-91
2022/08/25 12:16:50;;;;;;;30.63;11.40;;;25.20;99.90;;;;;;5069101;28;20056;-87
2022/08/25 12:19:34;;;;;;;25.48;10.18;;;25.30;99.90;;;;;;5067132;28;20038;-88
2022/08/25 12:22:02;;;;;;;27.92;10.07;;;25.30;99.90;;;;;;5068741;28;20032;-88
2022/08/25 12:24:54;;;;;;;24.58;9.85;;;25.30;99.90;;;;;;5065949;28;20032;-86
2022/08/25 12:27:29;;;;;;;25.73;10.02;;;25.30;99.90;;;;;;5062181;28;20029;-86
2022/08/25 12:30:02;;;;;;;21.13;8.77;;;25.30;99.90;;;;;;5061060;28;20040;-90
2022/08/25 12:32:55;;;;;;;26.60;9.43;;;25.30;99.90;;;;;;5059802;28;20037;-89
2022/08/25 12:35:31;;;;;;;23.60;10.10;;;25.30;99.90;;;;;;5065299;28;20035;-88
2022/08/25 12:38:05;;;;;;;35.78;10.38;;;25.30;99.90;;;;;;5063212;28;20031;-88
2022/08/25 12:40:42;;;;;;;25.27;10.25;;;25.40;99.90;;;;;;5064921;28;20039;-88
2022/08/25 12:43:10;;;;;;;36.75;11.80;;;25.40;99.90;;;;;;5063852;28;20035;-89
2022/08/25 12:45:43;;;;;;;29.30;11.07;;;25.50;99.90;;;;;;5058617;28;20021;-91
2022/08/25 12:48:27;;;;;;;19.73;8.82;;;25.60;99.90;;;;;;5068175;28;20032;-88
2022/08/25 12:51:00;;;;;;;28.02;8.55;;;25.60;99.90;;;;;;5066779;28;20036;-90
2022/08/25 12:54:00;;;;;;;33.55;9.02;;;25.60;99.90;;;;;;5090686;27;20802;-87
2022/08/25 12:56:35;;;;;;;27.10;10.45;;;25.70;99.90;;;;;;5082640;28;20078;-88
2022/08/25 12:59:01;;;;;;;19.77;8.50;;;25.70;99.90;;;;;;5082518;28;20028;-88
2022/08/25 13:02:06;;;;;;;24.23;8.38;;;25.80;99.90;;;;;;5080880;28;20591;-88
2022/08/25 13:04:53;;;;;;;29.83;9.43;;;25.80;99.90;;;;;;5073950;28;20516;-88
2022/08/25 13:07:25;;;;;;;18.42;8.27;;;25.90;99.90;;;;;;5076457;28;20464;-87